createdAt,value
2018-02-17T00:00:56.660Z,27.90
2018-02-17T00:03:25.248Z,29.20
2018-02-17T00:05:53.782Z,28.60
2018-02-17T00:08:21.599Z,27.85
2018-02-17T00:10:50.108Z,24.52
2018-02-17T00:13:17.861Z,26.10
2018-02-17T00:15:45.679Z,26.27
2018-02-17T00:18:13.434Z,26.30
2018-02-17T00:20:41.205Z,26.35
2018-02-17T00:23:09.059Z,26.15
2018-02-17T00:25:36.813Z,27.20
2018-02-17T00:28:04.582Z,27.70
2018-02-17T00:30:32.394Z,31.12
2018-02-17T00:33:00.157Z,27.08
2018-02-17T00:35:27.930Z,27.73
2018-02-17T00:37:55.757Z,26.73
2018-02-17T00:40:23.527Z,30.70
2018-02-17T00:42:52.078Z,30.52
2018-02-17T00:45:20.683Z,28.95
2018-02-17T00:47:48.429Z,30.77
2018-02-17T00:50:16.223Z,31.75
2018-02-17T00:52:45.438Z,32.25
2018-02-17T00:55:13.963Z,30.52
2018-02-17T00:57:44.365Z,32.80
2018-02-17T01:00:12.162Z,31.25
2018-02-17T01:02:39.932Z,30.52
2018-02-17T01:05:07.693Z,29.23
2018-02-17T01:07:35.506Z,30.85
2018-02-17T01:10:03.257Z,29.63
2018-02-17T01:12:31.794Z,32.72
2018-02-17T01:14:59.602Z,28.95
2018-02-17T01:17:28.121Z,32.55
2018-02-17T01:19:55.899Z,30.48
2018-02-17T01:22:23.710Z,31.25
2018-02-17T01:24:52.231Z,35.88
2018-02-17T01:27:19.987Z,33.92
2018-02-17T01:29:47.797Z,32.42
2018-02-17T01:32:16.319Z,30.23
2018-02-17T01:34:44.071Z,29.27
2018-02-17T01:37:11.894Z,29.90
2018-02-17T01:39:39.671Z,32.35
2018-02-17T01:42:08.202Z,32.25
2018-02-17T01:44:35.997Z,32.20
2018-02-17T01:47:03.759Z,34.22
2018-02-17T01:49:31.513Z,33.42
2018-02-17T01:51:59.417Z,33.45
2018-02-17T01:54:27.959Z,33.42
2018-02-17T01:56:55.710Z,31.48
2018-02-17T01:59:23.537Z,31.45
2018-02-17T02:01:51.286Z,36.58
2018-02-17T02:04:19.798Z,33.20
2018-02-17T02:06:47.601Z,39.78
2018-02-17T02:09:15.363Z,34.28
2018-02-17T02:11:43.126Z,37.88
2018-02-17T02:14:10.945Z,35.65
2018-02-17T02:16:38.702Z,34.83
2018-02-17T02:19:06.474Z,36.90
2018-02-17T02:21:34.287Z,32.95
2018-02-17T02:24:02.817Z,35.75
2018-02-17T02:26:30.581Z,34.80
2018-02-17T02:28:58.412Z,36.40
2018-02-17T02:31:26.165Z,37.90
2018-02-17T02:33:53.947Z,35.13
2018-02-17T02:36:21.758Z,34.55
2018-02-17T02:38:49.531Z,37.03
2018-02-17T02:41:17.299Z,32.97
2018-02-17T02:43:45.104Z,34.45
2018-02-17T02:46:12.883Z,31.52
2018-02-17T02:48:40.643Z,33.97
2018-02-17T02:51:08.459Z,34.58
2018-02-17T02:53:36.979Z,35.90
2018-02-17T02:56:04.755Z,33.15
2018-02-17T02:58:32.583Z,32.45
2018-02-17T03:01:00.361Z,34.08
2018-02-17T03:03:28.132Z,33.85
2018-02-17T03:05:55.938Z,34.35
2018-02-17T03:08:23.705Z,31.48
2018-02-17T03:10:51.472Z,33.00
2018-02-17T03:13:20.050Z,30.45
2018-02-17T03:15:48.567Z,30.05
2018-02-17T03:18:16.328Z,31.08
2018-02-17T03:20:44.206Z,30.35
2018-02-17T03:23:11.960Z,34.05
2018-02-17T03:25:39.730Z,32.40
2018-02-17T03:28:07.532Z,29.73
2018-02-17T03:30:35.302Z,32.85
2018-02-17T03:33:03.823Z,31.33
2018-02-17T03:35:31.633Z,29.33
2018-02-17T03:37:59.388Z,27.10
2018-02-17T03:40:27.144Z,28.30
2018-02-17T03:42:54.949Z,28.48
2018-02-17T03:45:23.479Z,29.83
2018-02-17T03:47:51.236Z,30.73
2018-02-17T03:50:19.056Z,29.35
2018-02-17T03:52:46.869Z,32.63
2018-02-17T03:55:14.621Z,32.58
2018-02-17T03:57:42.455Z,33.55
2018-02-17T04:00:10.216Z,36.53
2018-02-17T04:02:37.972Z,36.15
2018-02-17T04:05:05.805Z,33.47
2018-02-17T04:07:34.320Z,33.42
2018-02-17T04:10:02.072Z,35.28
2018-02-17T04:12:29.887Z,35.28
2018-02-17T04:14:57.640Z,32.70
2018-02-17T04:17:26.164Z,33.10
2018-02-17T04:19:53.971Z,35.38
2018-02-17T04:22:22.488Z,33.83
2018-02-17T04:24:51.006Z,36.35
2018-02-17T04:27:18.813Z,33.90
2018-02-17T04:29:46.569Z,34.33
2018-02-17T04:32:14.313Z,35.85
2018-02-17T04:34:42.113Z,35.83
2018-02-17T04:37:10.637Z,33.60
2018-02-17T04:53:10.813Z,29.52
2018-02-17T04:55:44.357Z,32.35
2018-02-17T04:58:17.762Z,34.08
2018-02-17T05:00:49.072Z,34.15
2018-02-17T05:03:33.618Z,34.15
2018-02-17T05:06:07.117Z,32.33
2018-02-17T05:08:40.542Z,32.70
2018-02-17T05:11:08.306Z,38.05
2018-02-17T05:13:36.059Z,37.30
2018-02-17T05:16:04.641Z,38.45
2018-02-17T05:18:38.123Z,39.10
2018-02-17T05:21:16.593Z,34.75
2018-02-17T05:23:55.028Z,34.08
2018-02-17T05:26:26.481Z,36.10
2018-02-17T05:28:57.643Z,35.80
2018-02-17T05:31:25.396Z,33.05
2018-02-17T05:33:53.218Z,36.13
2018-02-17T05:49:57.196Z,34.70
2018-02-17T05:52:25.714Z,33.00
2018-02-17T05:54:53.459Z,36.80
2018-02-17T05:57:21.258Z,37.00
2018-02-17T05:59:49.018Z,37.42
2018-02-17T06:02:16.770Z,38.22
2018-02-17T06:04:44.580Z,37.05
2018-02-17T06:07:13.093Z,34.50
2018-02-17T06:09:40.838Z,32.42
2018-02-17T06:12:08.643Z,31.15
2018-02-17T06:14:36.416Z,33.40
2018-02-17T06:17:04.176Z,34.60
2018-02-17T06:19:31.975Z,35.78
2018-02-17T06:21:59.741Z,35.22
2018-02-17T06:24:27.494Z,36.80
2018-02-17T06:26:55.293Z,32.53
2018-02-17T06:29:23.032Z,36.78
2018-02-17T06:31:50.772Z,34.58
2018-02-17T06:34:19.337Z,34.30
2018-02-17T06:36:47.088Z,33.83
2018-02-17T06:39:14.882Z,36.63
2018-02-17T06:41:42.684Z,33.35
2018-02-17T06:44:10.433Z,35.47
2018-02-17T06:46:38.172Z,36.90
2018-02-17T06:49:05.968Z,35.55
2018-02-17T06:51:33.719Z,33.13
2018-02-17T06:54:01.460Z,34.20
2018-02-17T06:56:29.535Z,34.10
2018-02-17T06:58:58.113Z,33.05
2018-02-17T07:01:25.862Z,30.37
2018-02-17T07:03:54.428Z,33.05
2018-02-17T07:06:22.949Z,33.70
2018-02-17T07:08:50.686Z,30.77
2018-02-17T07:11:18.480Z,32.63
2018-02-17T07:13:46.220Z,29.60
2018-02-17T07:16:13.963Z,32.92
2018-02-17T07:18:42.525Z,33.75
2018-02-17T07:21:10.265Z,30.25
2018-02-17T07:23:38.001Z,30.33
2018-02-17T07:26:05.790Z,29.95
2018-02-17T07:28:33.560Z,28.75
2018-02-17T07:31:01.308Z,25.75
2018-02-17T07:33:29.105Z,28.23
2018-02-17T07:35:57.618Z,25.85
2018-02-17T07:38:25.367Z,24.02
2018-02-17T07:40:53.164Z,26.02
2018-02-17T07:43:20.912Z,26.90
2018-02-17T07:45:48.675Z,25.10
2018-02-17T07:48:16.476Z,24.85
2018-02-17T07:50:44.223Z,25.25
2018-02-17T07:53:11.964Z,26.33
2018-02-17T07:55:39.764Z,28.90
2018-02-17T07:58:07.507Z,28.33
2018-02-17T08:00:35.254Z,27.08
2018-02-17T08:03:03.058Z,26.00
2018-02-17T08:05:31.601Z,24.95
2018-02-17T08:07:59.568Z,24.10
2018-02-17T08:10:27.427Z,23.38
2018-02-17T08:12:55.177Z,20.92
2018-02-17T08:15:22.958Z,23.05
2018-02-17T08:17:50.852Z,22.67
2018-02-17T08:20:18.609Z,24.33
2018-02-17T08:22:46.365Z,23.50
2018-02-17T08:25:14.163Z,21.00
2018-02-17T08:27:42.685Z,23.23
2018-02-17T08:30:10.429Z,23.17
2018-02-17T08:32:38.232Z,23.83
2018-02-17T08:35:05.981Z,22.17
2018-02-17T08:37:33.745Z,20.42
2018-02-17T08:40:01.566Z,20.80
2018-02-17T08:42:29.317Z,23.33
2018-02-17T08:44:57.089Z,22.15
2018-02-17T08:47:24.896Z,20.08
2018-02-17T08:49:52.646Z,22.37
2018-02-17T08:52:20.409Z,21.30
2018-02-17T08:54:48.212Z,20.12
2018-02-17T08:57:16.739Z,19.55
2018-02-17T08:59:44.492Z,22.62
2018-02-17T09:02:12.292Z,22.05
2018-02-17T09:04:40.046Z,21.30
2018-02-17T09:07:07.788Z,21.80
2018-02-17T09:09:35.591Z,21.62
2018-02-17T09:12:03.357Z,22.02
2018-02-17T09:14:31.106Z,20.37
2018-02-17T09:16:58.900Z,23.05
2018-02-17T09:19:27.411Z,21.40
2018-02-17T09:21:55.189Z,22.35
2018-02-17T09:24:22.988Z,24.00
2018-02-17T09:26:51.514Z,19.95
2018-02-17T09:29:19.252Z,23.38
2018-02-17T09:31:47.053Z,22.15
2018-02-17T09:34:14.794Z,23.23
2018-02-17T09:36:42.541Z,22.08
2018-02-17T09:39:10.340Z,22.87
2018-02-17T09:41:38.081Z,22.15
2018-02-17T09:44:05.867Z,20.00
2018-02-17T09:46:33.667Z,20.15
2018-02-17T09:49:02.189Z,19.98
2018-02-17T09:51:29.942Z,19.58
2018-02-17T09:53:57.850Z,20.10
2018-02-17T09:56:25.613Z,19.55
2018-02-17T09:58:53.353Z,20.55
2018-02-17T10:01:21.149Z,19.60
2018-02-17T10:03:48.887Z,19.05
2018-02-17T10:06:16.623Z,19.05
2018-02-17T10:08:44.424Z,23.20
2018-02-17T10:11:12.164Z,19.37
2018-02-17T10:13:39.926Z,20.50
2018-02-17T10:16:07.764Z,23.17
2018-02-17T10:18:35.553Z,18.48
2018-02-17T10:21:03.293Z,21.45
2018-02-17T10:23:31.094Z,22.10
2018-02-17T10:25:58.889Z,21.75
2018-02-17T10:28:27.414Z,21.10
2018-02-17T10:30:55.226Z,22.55
2018-02-17T10:33:23.734Z,21.20
2018-02-17T10:35:51.473Z,19.80
2018-02-17T10:38:20.034Z,22.02
2018-02-17T10:40:47.777Z,23.77
2018-02-17T10:43:15.512Z,22.62
2018-02-17T10:45:43.310Z,20.58
2018-02-17T10:48:11.060Z,21.60
2018-02-17T10:50:38.843Z,20.50
2018-02-17T10:53:07.413Z,24.05
2018-02-17T10:55:38.092Z,21.95
2018-02-17T10:58:05.828Z,21.95
2018-02-17T11:00:34.388Z,21.65
2018-02-17T11:03:02.134Z,20.20
2018-02-17T11:05:29.876Z,19.90
2018-02-17T11:07:57.667Z,22.60
2018-02-17T11:10:25.409Z,23.35
2018-02-17T11:12:53.149Z,22.95
2018-02-17T11:15:20.940Z,21.42
2018-02-17T11:17:48.698Z,19.23
2018-02-17T11:20:16.450Z,23.25
2018-02-17T11:22:44.259Z,23.12
2018-02-17T11:25:12.765Z,23.77
2018-02-17T11:27:40.501Z,20.98
2018-02-17T11:30:09.475Z,20.65
2018-02-17T11:32:37.224Z,19.85
2018-02-17T11:35:04.968Z,18.83
2018-02-17T11:37:32.765Z,19.02
2018-02-17T11:40:00.512Z,19.25
2018-02-17T11:42:28.258Z,21.25
2018-02-17T11:44:56.065Z,20.45
2018-02-17T11:47:24.571Z,19.65
2018-02-17T11:49:52.314Z,18.77
2018-02-17T11:52:20.874Z,18.65
2018-02-17T11:54:48.618Z,19.20
2018-02-17T11:57:16.358Z,17.48
2018-02-17T11:59:44.155Z,19.33
2018-02-17T12:02:11.907Z,18.48
2018-02-17T12:04:39.650Z,17.80
2018-02-17T12:07:07.451Z,16.33
2018-02-17T12:09:35.957Z,16.33
2018-02-17T12:12:03.701Z,19.48
2018-02-17T12:14:32.258Z,18.73
2018-02-17T12:16:59.996Z,16.65
2018-02-17T12:19:28.503Z,16.17
2018-02-17T12:21:56.296Z,17.08
2018-02-17T12:24:24.037Z,16.70
2018-02-17T12:26:52.541Z,14.38
2018-02-17T12:29:20.343Z,13.75
2018-02-17T12:31:48.091Z,12.50
2018-02-17T12:34:15.865Z,11.30
2018-02-17T12:36:43.674Z,11.48
2018-02-17T12:39:12.181Z,12.32
2018-02-17T12:41:39.917Z,14.15
2018-02-17T12:44:08.472Z,12.95
2018-02-17T12:46:36.217Z,11.80
2018-02-17T12:49:03.983Z,14.57
2018-02-17T12:51:31.774Z,9.30
2018-02-17T12:54:00.290Z,10.43
2018-02-17T12:56:28.047Z,10.50
2018-02-17T12:58:55.849Z,10.25
2018-02-17T13:01:23.593Z,9.02
2018-02-17T13:03:51.324Z,9.93
2018-02-17T13:06:19.125Z,8.70
2018-02-17T13:08:46.873Z,9.10
2018-02-17T13:11:14.607Z,8.23
2018-02-17T13:13:42.475Z,7.43
2018-02-17T13:16:10.217Z,7.75
2018-02-17T13:18:38.721Z,9.38
2018-02-17T13:21:06.553Z,8.90
2018-02-17T13:23:35.053Z,6.60
2018-02-17T13:26:02.811Z,7.95
2018-02-17T13:28:30.683Z,8.77
2018-02-17T13:30:58.588Z,10.25
2018-02-17T13:33:26.971Z,8.25
2018-02-17T13:35:54.885Z,7.55
2018-02-17T13:38:22.855Z,8.38
2018-02-17T13:40:50.632Z,8.02
2018-02-17T13:43:18.428Z,7.90
2018-02-17T13:45:46.161Z,7.28
2018-02-17T13:48:13.898Z,8.20
2018-02-17T13:50:41.746Z,7.03
2018-02-17T13:53:10.246Z,6.37
2018-02-17T13:55:37.988Z,8.10
2018-02-17T13:58:06.559Z,10.10
2018-02-17T14:00:35.055Z,7.43
2018-02-17T14:03:02.815Z,9.05
2018-02-17T14:05:30.605Z,9.45
2018-02-17T14:07:58.351Z,8.23
2018-02-17T14:10:26.090Z,7.62
2018-02-17T14:12:54.650Z,9.07
2018-02-17T14:15:22.392Z,7.85
2018-02-17T14:17:50.135Z,7.72
2018-02-17T14:20:17.949Z,7.53
2018-02-17T14:22:46.459Z,7.85
2018-02-17T14:25:14.196Z,8.45
2018-02-17T14:27:42.751Z,7.80
2018-02-17T14:30:10.485Z,8.85
2018-02-17T14:32:38.222Z,9.82
2018-02-17T14:35:06.027Z,9.20
2018-02-17T14:37:33.810Z,8.32
2018-02-17T14:40:01.553Z,10.10
2018-02-17T14:42:29.349Z,11.12
2018-02-17T14:44:57.861Z,8.68
2018-02-17T14:47:25.653Z,8.43
2018-02-17T14:49:53.444Z,10.02
2018-02-17T14:52:21.966Z,8.32
2018-02-17T14:54:49.721Z,9.55
2018-02-17T14:57:17.524Z,11.70
2018-02-17T14:59:45.262Z,8.45
2018-02-17T15:02:13.000Z,7.78
2018-02-17T15:04:40.793Z,7.37
2018-02-17T15:07:08.528Z,6.40
2018-02-17T15:09:36.268Z,8.05
2018-02-17T15:12:04.833Z,6.18
2018-02-17T15:14:33.334Z,5.97
2018-02-17T15:17:01.074Z,8.10
2018-02-17T15:19:29.649Z,7.47
2018-02-17T15:21:57.434Z,7.50
2018-02-17T15:24:26.584Z,7.37
2018-02-17T15:26:54.397Z,6.80
2018-02-17T15:29:22.148Z,8.57
2018-02-17T15:31:50.652Z,8.85
2018-02-17T15:34:18.840Z,7.30
2018-02-17T15:36:46.572Z,6.85
2018-02-17T15:39:14.325Z,8.27
2018-02-17T15:41:42.897Z,8.82
2018-02-17T15:44:11.401Z,8.50
2018-02-17T15:46:39.141Z,8.23
2018-02-17T15:49:07.696Z,9.43
2018-02-17T15:51:35.430Z,8.45
2018-02-17T15:54:03.162Z,7.35
2018-02-17T15:56:30.953Z,10.20
2018-02-17T15:58:58.701Z,8.95
2018-02-17T16:01:26.442Z,10.38
2018-02-17T16:03:54.245Z,8.68
2018-02-17T16:06:22.041Z,9.05
2018-02-17T16:08:50.569Z,11.45
2018-02-17T16:11:18.381Z,9.57
2018-02-17T16:13:46.905Z,10.98
2018-02-17T16:16:14.658Z,9.48
2018-02-17T16:18:42.449Z,9.30
2018-02-17T16:21:10.400Z,10.30
2018-02-17T16:23:38.141Z,9.75
2018-02-17T16:26:05.942Z,9.07
2018-02-17T16:28:34.444Z,9.25
2018-02-17T16:31:02.186Z,9.85
2018-02-17T16:33:29.985Z,9.57
2018-02-17T16:35:58.488Z,11.25
2018-02-17T16:38:26.224Z,11.25
2018-02-17T16:40:54.784Z,10.80
2018-02-17T16:43:22.520Z,13.85
2018-02-17T16:45:50.292Z,12.57
2018-02-17T16:48:18.466Z,14.40
2018-02-17T16:50:46.221Z,14.18
2018-02-17T16:53:13.961Z,14.38
2018-02-17T16:55:51.485Z,18.17
2018-02-17T16:58:19.309Z,17.40
2018-02-17T17:00:47.059Z,18.00
2018-02-17T17:03:14.880Z,21.73
2018-02-17T17:05:42.617Z,19.40
2018-02-17T17:08:10.385Z,17.52
2018-02-17T17:10:38.198Z,18.98
2018-02-17T17:13:06.718Z,22.95
2018-02-17T17:15:36.650Z,17.80
2018-02-17T17:18:05.544Z,15.45
2018-02-17T17:20:33.298Z,18.83
2018-02-17T17:23:01.073Z,18.42
2018-02-17T17:25:28.876Z,20.25
2018-02-17T17:27:56.621Z,21.85
2018-02-17T17:30:25.126Z,21.73
2018-02-17T17:32:52.940Z,21.37
2018-02-17T17:35:20.682Z,24.02
2018-02-17T17:37:48.425Z,20.70
2018-02-17T17:40:16.216Z,23.58
2018-02-17T17:42:43.964Z,21.17
2018-02-17T17:45:11.713Z,19.37
2018-02-17T17:47:39.524Z,21.35
2018-02-17T17:50:08.035Z,21.27
2018-02-17T17:52:36.011Z,19.35
2018-02-17T17:55:03.836Z,18.60
2018-02-17T17:57:32.341Z,20.75
2018-02-17T18:00:00.083Z,20.55
2018-02-17T18:02:29.956Z,16.85
2018-02-17T18:04:57.930Z,19.92
2018-02-17T18:07:27.629Z,20.35
2018-02-17T18:09:55.725Z,18.40
2018-02-17T18:12:24.257Z,18.67
2018-02-17T18:14:51.992Z,18.95
2018-02-17T18:17:19.805Z,19.17
2018-02-17T18:19:47.553Z,19.92
2018-02-17T18:22:15.287Z,20.73
2018-02-17T18:24:43.083Z,21.12
2018-02-17T18:27:10.846Z,20.90
2018-02-17T18:29:38.589Z,22.75
2018-02-17T18:32:06.406Z,22.20
2018-02-17T18:34:34.910Z,21.73
2018-02-17T18:37:02.649Z,21.55
2018-02-17T18:39:31.216Z,23.95
2018-02-17T18:41:59.014Z,25.73
2018-02-17T18:44:26.773Z,26.62
2018-02-17T18:46:54.565Z,25.12
2018-02-17T18:49:22.301Z,26.58
2018-02-17T18:51:50.041Z,28.70
2018-02-17T18:54:18.610Z,29.40
2018-02-17T18:56:46.354Z,27.95
2018-02-17T18:59:14.117Z,28.55
2018-02-17T19:01:41.950Z,30.75
2018-02-17T19:04:09.697Z,30.70
2018-02-17T19:06:37.437Z,29.27
2018-02-17T19:09:05.997Z,31.58
2018-02-17T19:11:33.757Z,32.90
2018-02-17T19:14:01.515Z,31.65
2018-02-17T19:18:57.804Z,33.80
2018-02-17T19:21:25.669Z,33.28
2018-02-17T19:23:53.464Z,31.35
2018-02-17T19:26:21.265Z,29.63
2018-02-17T19:28:49.053Z,28.75
2018-02-17T19:31:16.850Z,30.92
2018-02-17T19:33:44.616Z,32.90
2018-02-17T19:36:12.357Z,30.23
2018-02-17T19:38:40.182Z,29.02
2018-02-17T19:41:08.698Z,31.27
2018-02-17T19:43:36.449Z,29.48
2018-02-17T19:46:04.255Z,32.45
2018-02-17T19:48:32.040Z,32.15
2018-02-17T19:50:59.806Z,30.55
2018-02-17T19:53:28.360Z,29.48
2018-02-17T19:55:56.145Z,28.65
2018-02-17T19:58:24.689Z,31.98
2018-02-17T20:00:52.488Z,23.75
2018-02-17T20:03:21.204Z,29.98
2018-02-17T20:05:50.024Z,27.10
2018-02-17T20:08:17.851Z,25.10
2018-02-17T20:10:45.653Z,27.00
2018-02-17T20:13:13.409Z,26.45
2018-02-17T20:15:41.348Z,28.35
2018-02-17T20:18:09.135Z,28.98
2018-02-17T20:20:36.976Z,30.05
2018-02-17T20:23:04.774Z,29.55
2018-02-17T20:25:32.524Z,28.40
2018-02-17T20:28:00.472Z,34.63
2018-02-17T20:30:28.301Z,30.67
2018-02-17T20:32:56.060Z,29.00
2018-02-17T20:35:23.900Z,32.45
2018-02-17T20:37:51.694Z,33.95
2018-02-17T20:40:19.448Z,31.25
2018-02-17T20:42:47.978Z,35.00
2018-02-17T20:45:15.800Z,33.42
2018-02-17T20:47:44.353Z,33.55
2018-02-17T20:50:12.855Z,31.95
2018-02-17T20:52:40.658Z,31.95
2018-02-17T20:55:08.400Z,34.45
2018-02-17T20:57:36.145Z,33.60
2018-02-17T21:00:03.990Z,33.83
2018-02-17T21:02:32.556Z,30.08
2018-02-17T21:05:00.299Z,34.63
2018-02-17T21:07:28.096Z,35.95
2018-02-17T21:09:56.601Z,32.42
2018-02-17T21:12:24.337Z,34.38
2018-02-17T21:14:53.048Z,33.72
2018-02-17T21:17:20.797Z,34.28
2018-02-17T21:19:48.549Z,35.25
2018-02-17T21:22:17.114Z,37.05
2018-02-17T21:24:45.669Z,36.35
2018-02-17T21:27:13.421Z,36.03
2018-02-17T21:29:41.269Z,40.83
2018-02-17T21:32:09.028Z,35.83
2018-02-17T21:34:36.805Z,34.58
2018-02-17T21:37:04.617Z,34.13
2018-02-17T21:39:32.372Z,34.53
2018-02-17T21:42:00.901Z,34.47
2018-02-17T21:44:28.729Z,33.00
2018-02-17T21:46:56.499Z,32.58
2018-02-17T21:49:24.241Z,35.28
2018-02-17T21:51:52.807Z,35.25
2018-02-17T21:54:20.559Z,35.50
2018-02-17T21:56:48.313Z,33.72
2018-02-17T21:59:16.109Z,35.13
2018-02-17T22:01:44.646Z,36.95
2018-02-17T22:04:12.393Z,34.50
2018-02-17T22:06:40.197Z,34.65
2018-02-17T22:09:07.937Z,36.13
2018-02-17T22:11:35.691Z,34.80
2018-02-17T22:14:03.486Z,35.15
2018-02-17T22:16:42.421Z,36.35
2018-02-17T22:19:10.990Z,38.03
2018-02-17T22:21:39.506Z,35.40
2018-02-17T22:24:07.276Z,37.88
2018-02-17T22:26:35.103Z,37.83
2018-02-17T22:29:03.609Z,36.83
2018-02-17T22:31:31.357Z,38.42
2018-02-17T22:33:59.149Z,37.35
2018-02-17T22:36:26.911Z,37.70
2018-02-17T22:38:54.648Z,41.85
2018-02-17T22:41:22.548Z,36.72
2018-02-17T22:43:50.294Z,38.90
2018-02-17T22:46:18.264Z,37.63
2018-02-17T22:48:46.370Z,39.67
2018-02-17T22:51:14.120Z,36.63
2018-02-17T22:53:42.654Z,35.95
2018-02-17T22:56:10.491Z,40.17
2018-02-17T22:58:39.191Z,39.03
2018-02-17T23:01:06.966Z,36.60
2018-02-17T23:03:34.767Z,38.85
2018-02-17T23:06:02.527Z,38.85
2018-02-17T23:08:30.322Z,37.40
2018-02-17T23:10:58.445Z,38.20
2018-02-17T23:13:26.307Z,33.60
2018-02-17T23:15:54.053Z,35.58
2018-02-17T23:18:21.965Z,38.58
2018-02-17T23:20:49.854Z,38.15
2018-02-17T23:23:18.397Z,35.70
2018-02-17T23:25:46.257Z,35.72
2018-02-17T23:28:14.070Z,36.40
2018-02-17T23:30:41.905Z,37.72
2018-02-17T23:33:09.804Z,33.63
2018-02-17T23:35:37.600Z,35.33
2018-02-17T23:38:05.535Z,36.08
2018-02-17T23:40:33.362Z,33.25
2018-02-17T23:43:01.162Z,33.90
2018-02-17T23:45:28.920Z,37.65
2018-02-17T23:47:56.720Z,35.40
2018-02-17T23:50:24.470Z,35.10
2018-02-17T23:52:52.208Z,33.17
2018-02-17T23:55:20.000Z,32.70
2018-02-17T23:57:47.737Z,34.30
